sensor_id;sensor_type;location;lat;lon;timestamp;temperature;humidity
59128;DHT22;44912;52.754;5.994;2023-07-09T00:00:36;22.70;99.90
59128;DHT22;44912;52.754;5.994;2023-07-09T00:03:02;22.60;99.90
59128;DHT22;44912;52.754;5.994;2023-07-09T00:05:27;22.50;99.90
59128;DHT22;44912;52.754;5.994;2023-07-09T00:07:53;22.40;99.90
59128;DHT22;44912;52.754;5.994;2023-07-09T00:10:19;22.40;99.90
59128;DHT22;44912;52.754;5.994;2023-07-09T00:12:46;22.40;99.90
59128;DHT22;44912;52.754;5.994;2023-07-09T00:15:13;22.20;99.90
59128;DHT22;44912;52.754;5.994;2023-07-09T00:17:41;22.20;99.90
59128;DHT22;44912;52.754;5.994;2023-07-09T00:20:12;22.10;99.90
59128;DHT22;44912;52.754;5.994;2023-07-09T00:22:42;22.00;99.90
59128;DHT22;44912;52.754;5.994;2023-07-09T00:25:13;21.80;99.90
59128;DHT22;44912;52.754;5.994;2023-07-09T00:27:41;21.70;99.90
59128;DHT22;44912;52.754;5.994;2023-07-09T00:30:15;21.60;99.90
59128;DHT22;44912;52.754;5.994;2023-07-09T00:32:41;21.50;99.90
59128;DHT22;44912;52.754;5.994;2023-07-09T00:35:09;21.40;99.90
59128;DHT22;44912;52.754;5.994;2023-07-09T00:37:34;21.50;99.90
59128;DHT22;44912;52.754;5.994;2023-07-09T00:40:00;21.50;99.90
59128;DHT22;44912;52.754;5.994;2023-07-09T00:42:25;21.60;99.90
59128;DHT22;44912;52.754;5.994;2023-07-09T00:44:52;21.70;99.90
59128;DHT22;44912;52.754;5.994;2023-07-09T00:50:15;21.90;99.90
59128;DHT22;44912;52.754;5.994;2023-07-09T00:52:57;22.00;99.90
59128;DHT22;44912;52.754;5.994;2023-07-09T00:55:27;22.00;99.90
59128;DHT22;44912;52.754;5.994;2023-07-09T00:57:58;22.00;99.90
59128;DHT22;44912;52.754;5.994;2023-07-09T01:00:29;22.00;99.90
59128;DHT22;44912;52.754;5.994;2023-07-09T01:02:56;22.00;99.90
59128;DHT22;44912;52.754;5.994;2023-07-09T01:05:23;22.00;99.90
59128;DHT22;44912;52.754;5.994;2023-07-09T01:07:49;22.00;99.90
59128;DHT22;44912;52.754;5.994;2023-07-09T01:10:16;22.00;99.90
59128;DHT22;44912;52.754;5.994;2023-07-09T01:12:43;22.00;99.90
59128;DHT22;44912;52.754;5.994;2023-07-09T01:15:10;22.00;99.90
59128;DHT22;44912;52.754;5.994;2023-07-09T01:17:36;22.00;99.90
59128;DHT22;44912;52.754;5.994;2023-07-09T01:20:02;22.00;99.90
59128;DHT22;44912;52.754;5.994;2023-07-09T01:22:28;22.00;99.90
59128;DHT22;44912;52.754;5.994;2023-07-09T01:29:56;22.00;99.90
59128;DHT22;44912;52.754;5.994;2023-07-09T01:32:23;21.90;99.90
59128;DHT22;44912;52.754;5.994;2023-07-09T01:34:51;21.90;99.90
59128;DHT22;44912;52.754;5.994;2023-07-09T01:37:20;21.90;99.90
59128;DHT22;44912;52.754;5.994;2023-07-09T01:39:50;21.90;99.90
59128;DHT22;44912;52.754;5.994;2023-07-09T01:42:17;21.90;99.90
59128;DHT22;44912;52.754;5.994;2023-07-09T01:44:44;21.80;99.90
59128;DHT22;44912;52.754;5.994;2023-07-09T01:47:11;21.80;99.90
59128;DHT22;44912;52.754;5.994;2023-07-09T01:49:37;21.80;99.90
59128;DHT22;44912;52.754;5.994;2023-07-09T01:52:05;21.80;99.90
59128;DHT22;44912;52.754;5.994;2023-07-09T01:54:34;21.70;99.90
59128;DHT22;44912;52.754;5.994;2023-07-09T01:57:15;21.70;99.90
59128;DHT22;44912;52.754;5.994;2023-07-09T01:59:41;21.70;99.90
59128;DHT22;44912;52.754;5.994;2023-07-09T02:02:08;21.60;99.90
59128;DHT22;44912;52.754;5.994;2023-07-09T02:04:34;21.60;99.90
59128;DHT22;44912;52.754;5.994;2023-07-09T02:06:59;21.50;99.90
59128;DHT22;44912;52.754;5.994;2023-07-09T02:09:25;21.30;99.90
59128;DHT22;44912;52.754;5.994;2023-07-09T02:11:50;21.30;99.90
59128;DHT22;44912;52.754;5.994;2023-07-09T02:14:16;21.20;99.90
59128;DHT22;44912;52.754;5.994;2023-07-09T02:16:41;21.10;99.90
59128;DHT22;44912;52.754;5.994;2023-07-09T02:19:07;21.10;99.90
59128;DHT22;44912;52.754;5.994;2023-07-09T02:21:32;21.00;99.90
59128;DHT22;44912;52.754;5.994;2023-07-09T02:23:58;20.90;99.90
59128;DHT22;44912;52.754;5.994;2023-07-09T02:26:24;20.80;99.90
59128;DHT22;44912;52.754;5.994;2023-07-09T02:28:49;20.80;99.90
59128;DHT22;44912;52.754;5.994;2023-07-09T02:31:15;20.70;99.90
59128;DHT22;44912;52.754;5.994;2023-07-09T02:33:41;20.70;99.90
59128;DHT22;44912;52.754;5.994;2023-07-09T02:36:06;20.70;99.90
59128;DHT22;44912;52.754;5.994;2023-07-09T02:38:32;20.60;99.90
59128;DHT22;44912;52.754;5.994;2023-07-09T02:40:57;20.50;99.90
59128;DHT22;44912;52.754;5.994;2023-07-09T02:43:23;20.60;99.90
59128;DHT22;44912;52.754;5.994;2023-07-09T02:45:48;20.50;99.90
59128;DHT22;44912;52.754;5.994;2023-07-09T02:48:14;20.50;99.90
59128;DHT22;44912;52.754;5.994;2023-07-09T02:50:39;20.60;99.90
59128;DHT22;44912;52.754;5.994;2023-07-09T02:53:05;20.60;99.90
59128;DHT22;44912;52.754;5.994;2023-07-09T02:55:30;20.60;99.90
59128;DHT22;44912;52.754;5.994;2023-07-09T02:57:56;20.70;99.90
59128;DHT22;44912;52.754;5.994;2023-07-09T03:00:22;20.60;99.90
59128;DHT22;44912;52.754;5.994;2023-07-09T03:02:47;20.60;99.90
59128;DHT22;44912;52.754;5.994;2023-07-09T03:05:13;20.60;99.90
59128;DHT22;44912;52.754;5.994;2023-07-09T03:07:38;20.70;99.90
59128;DHT22;44912;52.754;5.994;2023-07-09T03:10:04;20.70;99.90
59128;DHT22;44912;52.754;5.994;2023-07-09T03:12:30;20.70;99.90
59128;DHT22;44912;52.754;5.994;2023-07-09T03:14:55;20.70;99.90
59128;DHT22;44912;52.754;5.994;2023-07-09T03:17:21;20.80;99.90
59128;DHT22;44912;52.754;5.994;2023-07-09T03:19:47;20.70;99.90
59128;DHT22;44912;52.754;5.994;2023-07-09T03:22:12;20.70;99.90
59128;DHT22;44912;52.754;5.994;2023-07-09T03:24:38;20.60;99.90
59128;DHT22;44912;52.754;5.994;2023-07-09T03:27:04;20.50;99.90
59128;DHT22;44912;52.754;5.994;2023-07-09T03:29:29;20.50;99.90
59128;DHT22;44912;52.754;5.994;2023-07-09T03:31:55;20.60;99.90
59128;DHT22;44912;52.754;5.994;2023-07-09T03:34:20;20.60;99.90
59128;DHT22;44912;52.754;5.994;2023-07-09T03:36:47;20.60;99.90
59128;DHT22;44912;52.754;5.994;2023-07-09T03:39:12;20.60;99.90
59128;DHT22;44912;52.754;5.994;2023-07-09T03:41:38;20.70;99.90
59128;DHT22;44912;52.754;5.994;2023-07-09T03:44:03;20.70;99.90
59128;DHT22;44912;52.754;5.994;2023-07-09T03:46:29;20.80;99.90
59128;DHT22;44912;52.754;5.994;2023-07-09T03:48:54;20.80;99.90
59128;DHT22;44912;52.754;5.994;2023-07-09T03:51:20;20.90;99.90
59128;DHT22;44912;52.754;5.994;2023-07-09T03:53:46;20.90;99.90
59128;DHT22;44912;52.754;5.994;2023-07-09T03:56:11;20.90;99.90
59128;DHT22;44912;52.754;5.994;2023-07-09T03:58:37;20.90;99.90
59128;DHT22;44912;52.754;5.994;2023-07-09T04:01:03;20.90;99.90
59128;DHT22;44912;52.754;5.994;2023-07-09T04:03:28;21.00;99.90
59128;DHT22;44912;52.754;5.994;2023-07-09T04:05:54;21.00;99.90
59128;DHT22;44912;52.754;5.994;2023-07-09T04:08:19;21.00;99.90
59128;DHT22;44912;52.754;5.994;2023-07-09T04:10:45;21.00;99.90
59128;DHT22;44912;52.754;5.994;2023-07-09T04:13:11;21.10;99.90
59128;DHT22;44912;52.754;5.994;2023-07-09T04:15:36;21.10;99.90
59128;DHT22;44912;52.754;5.994;2023-07-09T04:18:02;21.20;99.90
59128;DHT22;44912;52.754;5.994;2023-07-09T04:20:28;21.20;99.90
59128;DHT22;44912;52.754;5.994;2023-07-09T04:22:53;21.20;99.90
59128;DHT22;44912;52.754;5.994;2023-07-09T04:25:19;21.20;99.90
59128;DHT22;44912;52.754;5.994;2023-07-09T04:27:45;21.20;99.90
59128;DHT22;44912;52.754;5.994;2023-07-09T04:30:12;21.30;99.90
59128;DHT22;44912;52.754;5.994;2023-07-09T04:32:39;21.30;99.90
59128;DHT22;44912;52.754;5.994;2023-07-09T04:35:05;21.30;99.90
59128;DHT22;44912;52.754;5.994;2023-07-09T04:37:32;21.30;99.90
59128;DHT22;44912;52.754;5.994;2023-07-09T04:39:57;21.30;99.90
59128;DHT22;44912;52.754;5.994;2023-07-09T04:42:23;21.40;99.90
59128;DHT22;44912;52.754;5.994;2023-07-09T04:44:48;21.40;99.90
59128;DHT22;44912;52.754;5.994;2023-07-09T04:47:14;21.40;99.90
59128;DHT22;44912;52.754;5.994;2023-07-09T04:49:40;21.40;99.90
59128;DHT22;44912;52.754;5.994;2023-07-09T04:52:07;21.50;99.90
59128;DHT22;44912;52.754;5.994;2023-07-09T04:54:37;21.50;99.90
59128;DHT22;44912;52.754;5.994;2023-07-09T04:57:03;21.40;99.90
59128;DHT22;44912;52.754;5.994;2023-07-09T04:59:29;21.50;99.90
59128;DHT22;44912;52.754;5.994;2023-07-09T05:01:55;21.50;99.90
59128;DHT22;44912;52.754;5.994;2023-07-09T05:04:20;21.50;99.90
59128;DHT22;44912;52.754;5.994;2023-07-09T05:06:46;21.50;99.90
59128;DHT22;44912;52.754;5.994;2023-07-09T05:09:11;21.50;99.90
59128;DHT22;44912;52.754;5.994;2023-07-09T05:11:37;21.50;99.90
59128;DHT22;44912;52.754;5.994;2023-07-09T05:14:03;21.50;99.90
59128;DHT22;44912;52.754;5.994;2023-07-09T05:16:29;21.50;99.90
59128;DHT22;44912;52.754;5.994;2023-07-09T05:18:54;21.50;99.90
59128;DHT22;44912;52.754;5.994;2023-07-09T05:21:20;21.60;99.90
59128;DHT22;44912;52.754;5.994;2023-07-09T05:23:45;21.60;99.90
59128;DHT22;44912;52.754;5.994;2023-07-09T05:26:11;21.60;99.90
59128;DHT22;44912;52.754;5.994;2023-07-09T05:28:36;21.70;99.90
59128;DHT22;44912;52.754;5.994;2023-07-09T05:31:04;21.80;99.90
59128;DHT22;44912;52.754;5.994;2023-07-09T05:33:29;21.80;99.90
59128;DHT22;44912;52.754;5.994;2023-07-09T05:35:55;21.80;99.90
59128;DHT22;44912;52.754;5.994;2023-07-09T05:38:21;21.80;99.90
59128;DHT22;44912;52.754;5.994;2023-07-09T05:40:47;21.90;99.90
59128;DHT22;44912;52.754;5.994;2023-07-09T05:43:12;22.00;99.90
59128;DHT22;44912;52.754;5.994;2023-07-09T05:45:41;22.10;99.90
59128;DHT22;44912;52.754;5.994;2023-07-09T05:48:06;22.10;99.90
59128;DHT22;44912;52.754;5.994;2023-07-09T05:50:34;22.20;99.90
59128;DHT22;44912;52.754;5.994;2023-07-09T05:53:00;22.30;99.90
59128;DHT22;44912;52.754;5.994;2023-07-09T05:55:26;22.30;99.90
59128;DHT22;44912;52.754;5.994;2023-07-09T05:57:52;22.40;99.90
59128;DHT22;44912;52.754;5.994;2023-07-09T06:00:18;22.50;99.90
59128;DHT22;44912;52.754;5.994;2023-07-09T06:02:44;22.50;99.90
59128;DHT22;44912;52.754;5.994;2023-07-09T06:05:09;22.60;99.90
59128;DHT22;44912;52.754;5.994;2023-07-09T06:07:36;22.70;99.90
59128;DHT22;44912;52.754;5.994;2023-07-09T06:10:03;22.70;99.90
59128;DHT22;44912;52.754;5.994;2023-07-09T06:12:30;22.70;99.90
59128;DHT22;44912;52.754;5.994;2023-07-09T06:14:56;22.80;99.90
59128;DHT22;44912;52.754;5.994;2023-07-09T06:17:21;22.90;99.90
59128;DHT22;44912;52.754;5.994;2023-07-09T06:19:47;22.90;99.90
59128;DHT22;44912;52.754;5.994;2023-07-09T06:22:12;22.90;99.90
59128;DHT22;44912;52.754;5.994;2023-07-09T06:24:38;23.00;99.90
59128;DHT22;44912;52.754;5.994;2023-07-09T06:27:04;23.10;99.90
59128;DHT22;44912;52.754;5.994;2023-07-09T06:29:29;23.20;99.90
59128;DHT22;44912;52.754;5.994;2023-07-09T06:31:55;23.30;99.90
59128;DHT22;44912;52.754;5.994;2023-07-09T06:34:20;23.30;99.90
59128;DHT22;44912;52.754;5.994;2023-07-09T06:36:46;23.40;99.90
59128;DHT22;44912;52.754;5.994;2023-07-09T06:39:11;23.50;99.90
59128;DHT22;44912;52.754;5.994;2023-07-09T06:41:37;23.50;99.90
59128;DHT22;44912;52.754;5.994;2023-07-09T06:44:08;23.60;99.90
59128;DHT22;44912;52.754;5.994;2023-07-09T06:46:34;23.80;99.90
59128;DHT22;44912;52.754;5.994;2023-07-09T06:49:01;23.90;99.90
59128;DHT22;44912;52.754;5.994;2023-07-09T06:51:27;24.00;99.90
59128;DHT22;44912;52.754;5.994;2023-07-09T06:53:52;24.00;99.90
59128;DHT22;44912;52.754;5.994;2023-07-09T06:56:18;24.20;99.90
59128;DHT22;44912;52.754;5.994;2023-07-09T06:58:43;24.20;99.90
59128;DHT22;44912;52.754;5.994;2023-07-09T07:01:11;24.30;99.90
59128;DHT22;44912;52.754;5.994;2023-07-09T07:03:38;24.30;99.90
59128;DHT22;44912;52.754;5.994;2023-07-09T07:06:04;24.40;99.90
59128;DHT22;44912;52.754;5.994;2023-07-09T07:08:31;24.50;99.90
59128;DHT22;44912;52.754;5.994;2023-07-09T07:11:00;24.60;99.90
59128;DHT22;44912;52.754;5.994;2023-07-09T07:13:29;24.70;99.90
59128;DHT22;44912;52.754;5.994;2023-07-09T07:15:55;24.80;99.90
59128;DHT22;44912;52.754;5.994;2023-07-09T07:18:21;25.00;99.90
59128;DHT22;44912;52.754;5.994;2023-07-09T07:20:46;25.00;99.90
59128;DHT22;44912;52.754;5.994;2023-07-09T07:23:12;25.20;99.90
59128;DHT22;44912;52.754;5.994;2023-07-09T07:25:37;25.30;99.90
59128;DHT22;44912;52.754;5.994;2023-07-09T07:28:03;25.40;99.90
59128;DHT22;44912;52.754;5.994;2023-07-09T07:30:29;25.50;99.90
59128;DHT22;44912;52.754;5.994;2023-07-09T07:32:54;25.60;99.90
59128;DHT22;44912;52.754;5.994;2023-07-09T07:35:20;25.70;99.90
59128;DHT22;44912;52.754;5.994;2023-07-09T07:37:45;25.80;99.90
59128;DHT22;44912;52.754;5.994;2023-07-09T07:40:11;25.90;99.90
59128;DHT22;44912;52.754;5.994;2023-07-09T07:42:37;26.00;99.90
59128;DHT22;44912;52.754;5.994;2023-07-09T07:45:03;26.10;99.90
59128;DHT22;44912;52.754;5.994;2023-07-09T07:47:29;26.20;99.90
59128;DHT22;44912;52.754;5.994;2023-07-09T07:49:56;26.20;99.90
59128;DHT22;44912;52.754;5.994;2023-07-09T07:52:22;26.30;99.90
59128;DHT22;44912;52.754;5.994;2023-07-09T07:54:48;26.40;99.90
59128;DHT22;44912;52.754;5.994;2023-07-09T07:57:14;26.60;99.90
59128;DHT22;44912;52.754;5.994;2023-07-09T07:59:40;26.70;99.90
59128;DHT22;44912;52.754;5.994;2023-07-09T08:02:07;26.80;99.90
59128;DHT22;44912;52.754;5.994;2023-07-09T08:04:35;26.90;99.90
59128;DHT22;44912;52.754;5.994;2023-07-09T08:07:01;27.00;99.90
59128;DHT22;44912;52.754;5.994;2023-07-09T08:09:26;26.90;99.90
59128;DHT22;44912;52.754;5.994;2023-07-09T08:11:52;27.00;99.90
59128;DHT22;44912;52.754;5.994;2023-07-09T08:14:18;27.20;99.90
59128;DHT22;44912;52.754;5.994;2023-07-09T08:16:43;27.30;99.90
59128;DHT22;44912;52.754;5.994;2023-07-09T08:19:09;27.40;99.90
59128;DHT22;44912;52.754;5.994;2023-07-09T08:21:34;27.30;99.90
59128;DHT22;44912;52.754;5.994;2023-07-09T08:24:00;27.40;99.90
59128;DHT22;44912;52.754;5.994;2023-07-09T08:26:26;27.40;99.90
59128;DHT22;44912;52.754;5.994;2023-07-09T08:28:52;27.30;99.90
59128;DHT22;44912;52.754;5.994;2023-07-09T08:31:17;27.30;99.90
59128;DHT22;44912;52.754;5.994;2023-07-09T08:33:43;27.30;99.90
59128;DHT22;44912;52.754;5.994;2023-07-09T08:36:08;27.40;99.90
59128;DHT22;44912;52.754;5.994;2023-07-09T08:38:34;27.50;99.90
59128;DHT22;44912;52.754;5.994;2023-07-09T08:41:02;27.70;99.90
59128;DHT22;44912;52.754;5.994;2023-07-09T08:48:43;27.80;99.90
59128;DHT22;44912;52.754;5.994;2023-07-09T08:51:28;27.70;99.90
59128;DHT22;44912;52.754;5.994;2023-07-09T08:53:59;27.70;99.90
59128;DHT22;44912;52.754;5.994;2023-07-09T08:56:26;27.70;99.90
59128;DHT22;44912;52.754;5.994;2023-07-09T08:58:55;27.80;99.90
59128;DHT22;44912;52.754;5.994;2023-07-09T09:01:30;27.80;99.90
59128;DHT22;44912;52.754;5.994;2023-07-09T09:04:05;27.80;99.90
59128;DHT22;44912;52.754;5.994;2023-07-09T09:06:34;28.00;99.90
59128;DHT22;44912;52.754;5.994;2023-07-09T09:09:20;28.20;99.90
59128;DHT22;44912;52.754;5.994;2023-07-09T09:14:31;28.80;99.90
59128;DHT22;44912;52.754;5.994;2023-07-09T09:16:58;29.00;99.90
59128;DHT22;44912;52.754;5.994;2023-07-09T09:19:34;29.00;99.90
59128;DHT22;44912;52.754;5.994;2023-07-09T09:22:16;29.00;99.90
59128;DHT22;44912;52.754;5.994;2023-07-09T09:27:19;29.10;99.90
59128;DHT22;44912;52.754;5.994;2023-07-09T09:29:44;29.40;99.90
59128;DHT22;44912;52.754;5.994;2023-07-09T09:32:27;29.80;99.90
59128;DHT22;44912;52.754;5.994;2023-07-09T09:34:54;30.10;99.90
59128;DHT22;44912;52.754;5.994;2023-07-09T09:37:30;30.30;99.90
59128;DHT22;44912;52.754;5.994;2023-07-09T09:39:58;30.60;99.90
59128;DHT22;44912;52.754;5.994;2023-07-09T09:42:25;30.80;99.90
59128;DHT22;44912;52.754;5.994;2023-07-09T09:44:53;30.80;99.90
59128;DHT22;44912;52.754;5.994;2023-07-09T09:47:19;30.90;99.90
59128;DHT22;44912;52.754;5.994;2023-07-09T09:49:45;31.00;99.90
59128;DHT22;44912;52.754;5.994;2023-07-09T09:52:19;31.00;99.90
59128;DHT22;44912;52.754;5.994;2023-07-09T09:54:52;31.10;99.90
59128;DHT22;44912;52.754;5.994;2023-07-09T09:57:23;31.20;99.90
59128;DHT22;44912;52.754;5.994;2023-07-09T09:59:49;31.50;99.90
59128;DHT22;44912;52.754;5.994;2023-07-09T10:02:23;31.70;99.90
59128;DHT22;44912;52.754;5.994;2023-07-09T10:04:49;31.70;99.90
59128;DHT22;44912;52.754;5.994;2023-07-09T10:07:31;31.80;99.90
59128;DHT22;44912;52.754;5.994;2023-07-09T10:09:57;31.90;99.90
59128;DHT22;44912;52.754;5.994;2023-07-09T10:12:38;31.90;99.90
59128;DHT22;44912;52.754;5.994;2023-07-09T10:15:14;31.80;99.90
59128;DHT22;44912;52.754;5.994;2023-07-09T10:18:00;31.40;99.90
59128;DHT22;44912;52.754;5.994;2023-07-09T10:20:51;31.30;99.90
59128;DHT22;44912;52.754;5.994;2023-07-09T10:23:30;31.30;99.90
59128;DHT22;44912;52.754;5.994;2023-07-09T10:29:03;31.70;99.90
59128;DHT22;44912;52.754;5.994;2023-07-09T10:34:40;32.00;99.90
59128;DHT22;44912;52.754;5.994;2023-07-09T10:39:57;32.40;99.90
59128;DHT22;44912;52.754;5.994;2023-07-09T10:42:30;32.60;99.90
59128;DHT22;44912;52.754;5.994;2023-07-09T10:45:02;32.80;99.90
59128;DHT22;44912;52.754;5.994;2023-07-09T10:47:47;32.80;99.90
59128;DHT22;44912;52.754;5.994;2023-07-09T10:50:36;33.00;99.90
59128;DHT22;44912;52.754;5.994;2023-07-09T10:53:12;33.10;99.90
59128;DHT22;44912;52.754;5.994;2023-07-09T10:55:56;33.30;99.90
59128;DHT22;44912;52.754;5.994;2023-07-09T10:58:27;33.50;99.90
59128;DHT22;44912;52.754;5.994;2023-07-09T11:00:55;33.60;99.90
59128;DHT22;44912;52.754;5.994;2023-07-09T11:03:37;33.70;99.90
59128;DHT22;44912;52.754;5.994;2023-07-09T11:06:14;33.90;99.90
59128;DHT22;44912;52.754;5.994;2023-07-09T11:08:42;33.90;99.90
59128;DHT22;44912;52.754;5.994;2023-07-09T11:11:25;34.00;99.90
59128;DHT22;44912;52.754;5.994;2023-07-09T11:13:58;34.10;99.90
59128;DHT22;44912;52.754;5.994;2023-07-09T11:16:32;34.20;99.90
59128;DHT22;44912;52.754;5.994;2023-07-09T11:19:15;34.30;99.90
59128;DHT22;44912;52.754;5.994;2023-07-09T11:22:05;34.40;99.90
59128;DHT22;44912;52.754;5.994;2023-07-09T11:26:58;34.60;99.90
59128;DHT22;44912;52.754;5.994;2023-07-09T11:29:25;34.50;99.90
59128;DHT22;44912;52.754;5.994;2023-07-09T11:31:51;34.50;99.90
59128;DHT22;44912;52.754;5.994;2023-07-09T11:34:20;34.60;99.90
59128;DHT22;44912;52.754;5.994;2023-07-09T11:42:04;34.90;99.90
59128;DHT22;44912;52.754;5.994;2023-07-09T11:44:48;35.10;99.90
59128;DHT22;44912;52.754;5.994;2023-07-09T11:47:24;35.20;99.90
59128;DHT22;44912;52.754;5.994;2023-07-09T11:50:00;35.30;99.90
59128;DHT22;44912;52.754;5.994;2023-07-09T11:52:43;35.30;99.90
59128;DHT22;44912;52.754;5.994;2023-07-09T11:55:40;35.50;99.90
59128;DHT22;44912;52.754;5.994;2023-07-09T11:58:18;35.50;99.90
59128;DHT22;44912;52.754;5.994;2023-07-09T12:00:46;35.60;99.90
59128;DHT22;44912;52.754;5.994;2023-07-09T12:03:20;35.60;99.90
59128;DHT22;44912;52.754;5.994;2023-07-09T12:05:50;35.60;99.90
59128;DHT22;44912;52.754;5.994;2023-07-09T12:08:17;35.70;99.90
59128;DHT22;44912;52.754;5.994;2023-07-09T12:10:44;35.70;99.90
59128;DHT22;44912;52.754;5.994;2023-07-09T12:13:11;35.60;99.90
59128;DHT22;44912;52.754;5.994;2023-07-09T12:15:39;35.40;99.90
59128;DHT22;44912;52.754;5.994;2023-07-09T12:18:11;35.30;99.90
59128;DHT22;44912;52.754;5.994;2023-07-09T12:20:37;35.20;99.90
59128;DHT22;44912;52.754;5.994;2023-07-09T12:23:21;35.30;99.90
59128;DHT22;44912;52.754;5.994;2023-07-09T12:25:49;35.30;99.90
59128;DHT22;44912;52.754;5.994;2023-07-09T12:28:15;35.20;99.90
59128;DHT22;44912;52.754;5.994;2023-07-09T12:30:46;35.30;99.90
59128;DHT22;44912;52.754;5.994;2023-07-09T12:33:16;35.30;99.90
59128;DHT22;44912;52.754;5.994;2023-07-09T12:35:42;35.20;99.90
59128;DHT22;44912;52.754;5.994;2023-07-09T12:38:22;35.20;99.90
59128;DHT22;44912;52.754;5.994;2023-07-09T12:40:51;35.20;99.90
59128;DHT22;44912;52.754;5.994;2023-07-09T12:43:25;35.20;99.90
59128;DHT22;44912;52.754;5.994;2023-07-09T12:45:51;35.00;99.90
59128;DHT22;44912;52.754;5.994;2023-07-09T12:48:19;34.90;99.90
59128;DHT22;44912;52.754;5.994;2023-07-09T12:50:49;34.90;99.90
59128;DHT22;44912;52.754;5.994;2023-07-09T12:53:17;34.90;99.90
59128;DHT22;44912;52.754;5.994;2023-07-09T12:55:45;35.00;99.90
59128;DHT22;44912;52.754;5.994;2023-07-09T12:58:19;35.00;99.90
59128;DHT22;44912;52.754;5.994;2023-07-09T13:00:49;34.90;99.90
59128;DHT22;44912;52.754;5.994;2023-07-09T13:03:18;34.80;99.90
59128;DHT22;44912;52.754;5.994;2023-07-09T13:06:04;34.50;99.90
59128;DHT22;44912;52.754;5.994;2023-07-09T13:08:32;34.30;99.90
59128;DHT22;44912;52.754;5.994;2023-07-09T13:11:00;34.00;99.90
59128;DHT22;44912;52.754;5.994;2023-07-09T13:13:26;34.00;99.90
59128;DHT22;44912;52.754;5.994;2023-07-09T13:15:57;34.20;99.90
59128;DHT22;44912;52.754;5.994;2023-07-09T13:18:25;34.50;99.90
59128;DHT22;44912;52.754;5.994;2023-07-09T13:20:51;34.40;99.90
59128;DHT22;44912;52.754;5.994;2023-07-09T13:23:25;34.30;99.90
59128;DHT22;44912;52.754;5.994;2023-07-09T13:25:51;34.20;99.90
59128;DHT22;44912;52.754;5.994;2023-07-09T13:30:53;34.20;99.90
59128;DHT22;44912;52.754;5.994;2023-07-09T13:33:21;34.30;99.90
59128;DHT22;44912;52.754;5.994;2023-07-09T13:35:47;34.40;99.90
59128;DHT22;44912;52.754;5.994;2023-07-09T13:38:17;34.70;99.90
59128;DHT22;44912;52.754;5.994;2023-07-09T13:40:46;34.90;99.90
59128;DHT22;44912;52.754;5.994;2023-07-09T13:43:35;35.00;99.90
59128;DHT22;44912;52.754;5.994;2023-07-09T13:46:03;35.30;99.90
59128;DHT22;44912;52.754;5.994;2023-07-09T13:48:31;35.50;99.90
59128;DHT22;44912;52.754;5.994;2023-07-09T13:50:57;35.50;99.90
59128;DHT22;44912;52.754;5.994;2023-07-09T13:53:29;35.50;99.90
59128;DHT22;44912;52.754;5.994;2023-07-09T13:55:55;35.60;99.90
59128;DHT22;44912;52.754;5.994;2023-07-09T13:58:23;35.60;99.90
59128;DHT22;44912;52.754;5.994;2023-07-09T14:00:50;35.70;99.90
59128;DHT22;44912;52.754;5.994;2023-07-09T14:03:24;35.80;99.90
59128;DHT22;44912;52.754;5.994;2023-07-09T14:05:51;35.90;99.90
59128;DHT22;44912;52.754;5.994;2023-07-09T14:08:17;35.80;99.90
59128;DHT22;44912;52.754;5.994;2023-07-09T14:10:44;35.70;99.90
59128;DHT22;44912;52.754;5.994;2023-07-09T14:13:19;35.20;99.90
59128;DHT22;44912;52.754;5.994;2023-07-09T14:15:45;34.50;99.90
59128;DHT22;44912;52.754;5.994;2023-07-09T14:18:17;33.70;99.90
59128;DHT22;44912;52.754;5.994;2023-07-09T14:20:43;32.30;99.90
59128;DHT22;44912;52.754;5.994;2023-07-09T14:23:13;30.00;99.90
59128;DHT22;44912;52.754;5.994;2023-07-09T14:25:40;28.00;99.90
59128;DHT22;44912;52.754;5.994;2023-07-09T14:28:15;27.20;99.90
59128;DHT22;44912;52.754;5.994;2023-07-09T14:30:42;26.40;99.90
59128;DHT22;44912;52.754;5.994;2023-07-09T14:33:15;25.70;99.90
59128;DHT22;44912;52.754;5.994;2023-07-09T14:35:41;25.00;99.90
59128;DHT22;44912;52.754;5.994;2023-07-09T14:38:23;24.50;99.90
59128;DHT22;44912;52.754;5.994;2023-07-09T14:40:52;24.00;99.90
59128;DHT22;44912;52.754;5.994;2023-07-09T14:43:19;23.60;99.90
59128;DHT22;44912;52.754;5.994;2023-07-09T14:45:44;23.30;99.90
59128;DHT22;44912;52.754;5.994;2023-07-09T14:48:18;23.10;99.90
59128;DHT22;44912;52.754;5.994;2023-07-09T14:50:44;23.00;99.90
59128;DHT22;44912;52.754;5.994;2023-07-09T14:53:23;22.90;99.90
59128;DHT22;44912;52.754;5.994;2023-07-09T14:55:49;22.90;99.90
59128;DHT22;44912;52.754;5.994;2023-07-09T14:58:21;23.00;99.90
59128;DHT22;44912;52.754;5.994;2023-07-09T15:00:47;23.00;99.90
59128;DHT22;44912;52.754;5.994;2023-07-09T15:03:19;23.00;99.90
59128;DHT22;44912;52.754;5.994;2023-07-09T15:05:46;23.10;99.90
59128;DHT22;44912;52.754;5.994;2023-07-09T15:08:17;23.10;99.90
59128;DHT22;44912;52.754;5.994;2023-07-09T15:10:43;23.10;99.90
59128;DHT22;44912;52.754;5.994;2023-07-09T15:13:17;23.10;99.90
59128;DHT22;44912;52.754;5.994;2023-07-09T15:15:43;23.20;99.90
59128;DHT22;44912;52.754;5.994;2023-07-09T15:18:12;23.10;99.90
59128;DHT22;44912;52.754;5.994;2023-07-09T15:20:38;23.00;99.90
59128;DHT22;44912;52.754;5.994;2023-07-09T15:23:05;22.90;99.90
59128;DHT22;44912;52.754;5.994;2023-07-09T15:25:30;22.90;99.90
59128;DHT22;44912;52.754;5.994;2023-07-09T15:27:56;22.90;99.90
59128;DHT22;44912;52.754;5.994;2023-07-09T15:30:24;22.80;99.90
59128;DHT22;44912;52.754;5.994;2023-07-09T15:32:51;22.70;99.90
59128;DHT22;44912;52.754;5.994;2023-07-09T15:35:18;22.70;99.90
59128;DHT22;44912;52.754;5.994;2023-07-09T15:37:45;22.70;99.90
59128;DHT22;44912;52.754;5.994;2023-07-09T15:42:46;22.70;99.90
59128;DHT22;44912;52.754;5.994;2023-07-09T15:45:14;22.60;99.90
59128;DHT22;44912;52.754;5.994;2023-07-09T15:47:40;22.60;99.90
59128;DHT22;44912;52.754;5.994;2023-07-09T15:50:22;22.50;99.90
59128;DHT22;44912;52.754;5.994;2023-07-09T15:52:49;22.40;99.90
59128;DHT22;44912;52.754;5.994;2023-07-09T15:55:17;22.30;99.90
59128;DHT22;44912;52.754;5.994;2023-07-09T15:57:45;22.30;99.90
59128;DHT22;44912;52.754;5.994;2023-07-09T16:00:24;22.40;99.90
59128;DHT22;44912;52.754;5.994;2023-07-09T16:02:51;22.40;99.90
59128;DHT22;44912;52.754;5.994;2023-07-09T16:05:19;22.50;99.90
59128;DHT22;44912;52.754;5.994;2023-07-09T16:07:46;22.50;99.90
59128;DHT22;44912;52.754;5.994;2023-07-09T16:10:12;22.60;99.90
59128;DHT22;44912;52.754;5.994;2023-07-09T16:12:38;22.60;99.90
59128;DHT22;44912;52.754;5.994;2023-07-09T16:15:04;22.40;99.90
59128;DHT22;44912;52.754;5.994;2023-07-09T16:17:30;22.10;99.90